sensor_id;sensor_type;location;lat;lon;timestamp;P1;durP1;ratioP1;P2;durP2;ratioP2
15669;SDS011;18524;45.190;5.732;2023-03-01T00:00:36;22.10;;;17.63;;
15669;SDS011;18524;45.190;5.732;2023-03-01T00:05:26;20.47;;;17.43;;
15669;SDS011;18524;45.190;5.732;2023-03-01T00:10:16;22.23;;;17.30;;
15669;SDS011;18524;45.190;5.732;2023-03-01T00:15:07;19.37;;;17.23;;
15669;SDS011;18524;45.190;5.732;2023-03-01T00:19:58;19.10;;;16.83;;
15669;SDS011;18524;45.190;5.732;2023-03-01T00:24:48;20.47;;;17.03;;
15669;SDS011;18524;45.190;5.732;2023-03-01T00:29:38;20.37;;;16.93;;
15669;SDS011;18524;45.190;5.732;2023-03-01T00:34:29;19.87;;;17.47;;
15669;SDS011;18524;45.190;5.732;2023-03-01T00:39:19;20.67;;;17.23;;
15669;SDS011;18524;45.190;5.732;2023-03-01T00:44:10;20.23;;;17.57;;
15669;SDS011;18524;45.190;5.732;2023-03-01T00:49:00;20.80;;;17.27;;
15669;SDS011;18524;45.190;5.732;2023-03-01T00:53:52;20.57;;;17.20;;
15669;SDS011;18524;45.190;5.732;2023-03-01T00:58:44;20.93;;;17.47;;
15669;SDS011;18524;45.190;5.732;2023-03-01T01:03:34;20.40;;;17.43;;
15669;SDS011;18524;45.190;5.732;2023-03-01T01:08:25;20.93;;;18.27;;
15669;SDS011;18524;45.190;5.732;2023-03-01T01:13:15;20.30;;;17.73;;
15669;SDS011;18524;45.190;5.732;2023-03-01T01:18:06;23.70;;;19.60;;
15669;SDS011;18524;45.190;5.732;2023-03-01T01:22:56;25.90;;;21.00;;
15669;SDS011;18524;45.190;5.732;2023-03-01T01:27:46;26.87;;;21.33;;
15669;SDS011;18524;45.190;5.732;2023-03-01T01:32:37;27.10;;;21.80;;
15669;SDS011;18524;45.190;5.732;2023-03-01T01:37:27;27.20;;;21.20;;
15669;SDS011;18524;45.190;5.732;2023-03-01T01:42:21;30.80;;;22.80;;
15669;SDS011;18524;45.190;5.732;2023-03-01T01:47:13;28.73;;;21.93;;
15669;SDS011;18524;45.190;5.732;2023-03-01T01:52:08;27.57;;;21.23;;
15669;SDS011;18524;45.190;5.732;2023-03-01T01:57:21;28.83;;;22.20;;
15669;SDS011;18524;45.190;5.732;2023-03-01T02:02:15;29.70;;;22.03;;
15669;SDS011;18524;45.190;5.732;2023-03-01T02:07:09;27.60;;;21.67;;
15669;SDS011;18524;45.190;5.732;2023-03-01T02:12:05;29.03;;;22.80;;
15669;SDS011;18524;45.190;5.732;2023-03-01T02:16:55;30.37;;;22.13;;
15669;SDS011;18524;45.190;5.732;2023-03-01T02:22:29;28.80;;;21.77;;
15669;SDS011;18524;45.190;5.732;2023-03-01T02:27:08;29.60;;;22.10;;
15669;SDS011;18524;45.190;5.732;2023-03-01T02:32:00;29.50;;;22.40;;
15669;SDS011;18524;45.190;5.732;2023-03-01T02:36:55;29.90;;;22.70;;
15669;SDS011;18524;45.190;5.732;2023-03-01T02:41:51;31.80;;;23.73;;
15669;SDS011;18524;45.190;5.732;2023-03-01T02:46:45;30.13;;;22.30;;
15669;SDS011;18524;45.190;5.732;2023-03-01T02:51:47;29.43;;;22.53;;
15669;SDS011;18524;45.190;5.732;2023-03-01T02:56:47;29.93;;;22.40;;
15669;SDS011;18524;45.190;5.732;2023-03-01T03:01:38;31.03;;;23.50;;
15669;SDS011;18524;45.190;5.732;2023-03-01T03:06:29;30.13;;;22.87;;
15669;SDS011;18524;45.190;5.732;2023-03-01T03:11:19;28.57;;;22.07;;
15669;SDS011;18524;45.190;5.732;2023-03-01T03:16:10;31.53;;;24.00;;
15669;SDS011;18524;45.190;5.732;2023-03-01T03:21:01;32.33;;;24.53;;
15669;SDS011;18524;45.190;5.732;2023-03-01T03:25:51;32.00;;;23.80;;
15669;SDS011;18524;45.190;5.732;2023-03-01T03:30:42;31.63;;;23.70;;
15669;SDS011;18524;45.190;5.732;2023-03-01T03:35:34;30.83;;;23.70;;
15669;SDS011;18524;45.190;5.732;2023-03-01T03:40:34;33.80;;;24.53;;
15669;SDS011;18524;45.190;5.732;2023-03-01T03:45:24;33.43;;;23.77;;
15669;SDS011;18524;45.190;5.732;2023-03-01T03:50:16;34.30;;;24.57;;
15669;SDS011;18524;45.190;5.732;2023-03-01T03:55:08;32.10;;;23.70;;
15669;SDS011;18524;45.190;5.732;2023-03-01T04:00:00;33.97;;;24.60;;
15669;SDS011;18524;45.190;5.732;2023-03-01T04:04:53;33.27;;;23.93;;
15669;SDS011;18524;45.190;5.732;2023-03-01T04:09:44;32.80;;;24.67;;
15669;SDS011;18524;45.190;5.732;2023-03-01T04:14:34;33.67;;;25.07;;
15669;SDS011;18524;45.190;5.732;2023-03-01T04:19:24;34.30;;;24.90;;
15669;SDS011;18524;45.190;5.732;2023-03-01T04:24:16;37.73;;;24.43;;
15669;SDS011;18524;45.190;5.732;2023-03-01T04:29:07;34.37;;;24.33;;
15669;SDS011;18524;45.190;5.732;2023-03-01T04:33:57;32.93;;;24.23;;
15669;SDS011;18524;45.190;5.732;2023-03-01T04:38:47;34.70;;;25.53;;
15669;SDS011;18524;45.190;5.732;2023-03-01T04:43:38;37.00;;;26.53;;
15669;SDS011;18524;45.190;5.732;2023-03-01T04:48:29;35.57;;;25.30;;
15669;SDS011;18524;45.190;5.732;2023-03-01T04:53:20;35.50;;;26.40;;
15669;SDS011;18524;45.190;5.732;2023-03-01T04:58:10;36.00;;;26.57;;
15669;SDS011;18524;45.190;5.732;2023-03-01T05:03:01;35.50;;;25.70;;
15669;SDS011;18524;45.190;5.732;2023-03-01T05:07:55;36.43;;;25.70;;
15669;SDS011;18524;45.190;5.732;2023-03-01T05:12:47;34.10;;;25.73;;
15669;SDS011;18524;45.190;5.732;2023-03-01T05:17:37;37.37;;;25.97;;
15669;SDS011;18524;45.190;5.732;2023-03-01T05:22:28;35.83;;;26.03;;
15669;SDS011;18524;45.190;5.732;2023-03-01T05:27:19;37.70;;;25.63;;
15669;SDS011;18524;45.190;5.732;2023-03-01T05:32:12;38.03;;;26.10;;
15669;SDS011;18524;45.190;5.732;2023-03-01T05:37:05;34.87;;;25.50;;
15669;SDS011;18524;45.190;5.732;2023-03-01T05:41:58;36.13;;;25.33;;
15669;SDS011;18524;45.190;5.732;2023-03-01T05:46:49;35.13;;;25.33;;
15669;SDS011;18524;45.190;5.732;2023-03-01T05:51:40;36.33;;;25.60;;
15669;SDS011;18524;45.190;5.732;2023-03-01T05:56:34;34.03;;;25.50;;
15669;SDS011;18524;45.190;5.732;2023-03-01T06:01:26;37.57;;;25.60;;
15669;SDS011;18524;45.190;5.732;2023-03-01T06:06:17;34.33;;;25.43;;
15669;SDS011;18524;45.190;5.732;2023-03-01T06:11:07;32.50;;;24.43;;
15669;SDS011;18524;45.190;5.732;2023-03-01T06:15:57;36.20;;;25.40;;
15669;SDS011;18524;45.190;5.732;2023-03-01T06:20:54;35.97;;;25.67;;
15669;SDS011;18524;45.190;5.732;2023-03-01T06:25:45;36.77;;;25.80;;
15669;SDS011;18524;45.190;5.732;2023-03-01T06:30:35;37.73;;;26.30;;
15669;SDS011;18524;45.190;5.732;2023-03-01T06:35:26;37.63;;;26.30;;
15669;SDS011;18524;45.190;5.732;2023-03-01T06:40:19;36.57;;;26.50;;
15669;SDS011;18524;45.190;5.732;2023-03-01T06:45:11;37.07;;;25.77;;
15669;SDS011;18524;45.190;5.732;2023-03-01T06:50:01;34.70;;;25.17;;
15669;SDS011;18524;45.190;5.732;2023-03-01T06:54:52;37.27;;;26.83;;
15669;SDS011;18524;45.190;5.732;2023-03-01T06:59:43;35.70;;;25.97;;
15669;SDS011;18524;45.190;5.732;2023-03-01T07:04:33;39.17;;;26.57;;
15669;SDS011;18524;45.190;5.732;2023-03-01T07:09:24;35.83;;;26.47;;
15669;SDS011;18524;45.190;5.732;2023-03-01T07:14:14;35.07;;;25.67;;
15669;SDS011;18524;45.190;5.732;2023-03-01T07:19:05;37.50;;;26.77;;
15669;SDS011;18524;45.190;5.732;2023-03-01T07:23:55;35.27;;;25.53;;
15669;SDS011;18524;45.190;5.732;2023-03-01T07:28:46;34.87;;;25.57;;
15669;SDS011;18524;45.190;5.732;2023-03-01T07:33:36;37.47;;;26.63;;
15669;SDS011;18524;45.190;5.732;2023-03-01T07:38:26;43.80;;;30.53;;
15669;SDS011;18524;45.190;5.732;2023-03-01T07:43:17;42.53;;;31.40;;
15669;SDS011;18524;45.190;5.732;2023-03-01T07:48:08;47.20;;;31.27;;
15669;SDS011;18524;45.190;5.732;2023-03-01T07:52:58;40.57;;;28.73;;
15669;SDS011;18524;45.190;5.732;2023-03-01T07:57:48;43.90;;;30.30;;
15669;SDS011;18524;45.190;5.732;2023-03-01T08:02:39;45.37;;;30.93;;
15669;SDS011;18524;45.190;5.732;2023-03-01T08:07:32;47.37;;;31.47;;
15669;SDS011;18524;45.190;5.732;2023-03-01T08:12:23;41.87;;;28.53;;
15669;SDS011;18524;45.190;5.732;2023-03-01T08:17:13;46.70;;;30.77;;
15669;SDS011;18524;45.190;5.732;2023-03-01T08:22:04;43.70;;;30.10;;
15669;SDS011;18524;45.190;5.732;2023-03-01T08:26:54;45.80;;;29.33;;
15669;SDS011;18524;45.190;5.732;2023-03-01T08:31:45;42.63;;;30.03;;
15669;SDS011;18524;45.190;5.732;2023-03-01T08:36:36;42.83;;;30.53;;
15669;SDS011;18524;45.190;5.732;2023-03-01T08:41:29;43.23;;;28.37;;
15669;SDS011;18524;45.190;5.732;2023-03-01T08:46:20;40.23;;;28.97;;
15669;SDS011;18524;45.190;5.732;2023-03-01T08:51:14;41.07;;;28.73;;
15669;SDS011;18524;45.190;5.732;2023-03-01T08:56:07;37.90;;;28.73;;
15669;SDS011;18524;45.190;5.732;2023-03-01T09:00:58;37.73;;;28.37;;
15669;SDS011;18524;45.190;5.732;2023-03-01T09:05:48;41.47;;;29.00;;
15669;SDS011;18524;45.190;5.732;2023-03-01T09:10:40;46.10;;;32.60;;
15669;SDS011;18524;45.190;5.732;2023-03-01T09:15:30;51.77;;;35.23;;
15669;SDS011;18524;45.190;5.732;2023-03-01T09:20:20;40.20;;;28.30;;
15669;SDS011;18524;45.190;5.732;2023-03-01T09:25:11;41.83;;;29.53;;
15669;SDS011;18524;45.190;5.732;2023-03-01T09:30:01;39.63;;;27.50;;
15669;SDS011;18524;45.190;5.732;2023-03-01T09:34:52;40.67;;;28.47;;
15669;SDS011;18524;45.190;5.732;2023-03-01T09:39:54;40.83;;;28.87;;
15669;SDS011;18524;45.190;5.732;2023-03-01T09:55:08;38.87;;;28.53;;
15669;SDS011;18524;45.190;5.732;2023-03-01T10:10:10;40.47;;;28.40;;
15669;SDS011;18524;45.190;5.732;2023-03-01T10:15:41;37.87;;;27.90;;
15669;SDS011;18524;45.190;5.732;2023-03-01T10:20:46;40.47;;;28.27;;
15669;SDS011;18524;45.190;5.732;2023-03-01T10:25:48;40.43;;;27.70;;
15669;SDS011;18524;45.190;5.732;2023-03-01T10:30:46;37.40;;;26.97;;
15669;SDS011;18524;45.190;5.732;2023-03-01T10:35:37;38.93;;;27.00;;
15669;SDS011;18524;45.190;5.732;2023-03-01T10:40:27;37.50;;;27.07;;
15669;SDS011;18524;45.190;5.732;2023-03-01T10:50:21;35.97;;;26.10;;
15669;SDS011;18524;45.190;5.732;2023-03-01T11:00:22;38.78;;;27.35;;
15669;SDS011;18524;45.190;5.732;2023-03-01T11:05:16;39.40;;;27.33;;
15669;SDS011;18524;45.190;5.732;2023-03-01T11:10:15;38.57;;;27.40;;
15669;SDS011;18524;45.190;5.732;2023-03-01T11:15:08;37.17;;;26.77;;
15669;SDS011;18524;45.190;5.732;2023-03-01T11:25:04;39.00;;;26.73;;
15669;SDS011;18524;45.190;5.732;2023-03-01T11:30:12;39.83;;;27.47;;
15669;SDS011;18524;45.190;5.732;2023-03-01T11:35:10;35.10;;;25.63;;
15669;SDS011;18524;45.190;5.732;2023-03-01T11:45:03;37.17;;;26.93;;
15669;SDS011;18524;45.190;5.732;2023-03-01T12:00:18;34.57;;;25.77;;
15669;SDS011;18524;45.190;5.732;2023-03-01T12:05:16;36.30;;;27.37;;
15669;SDS011;18524;45.190;5.732;2023-03-01T12:10:30;40.80;;;29.57;;
15669;SDS011;18524;45.190;5.732;2023-03-01T12:37:12;40.93;;;30.50;;
15669;SDS011;18524;45.190;5.732;2023-03-01T12:57:52;37.80;;;29.30;;
15669;SDS011;18524;45.190;5.732;2023-03-01T13:17:46;36.72;;;28.73;;
15669;SDS011;18524;45.190;5.732;2023-03-01T13:22:36;36.17;;;28.50;;
15669;SDS011;18524;45.190;5.732;2023-03-01T13:27:28;35.23;;;28.13;;
15669;SDS011;18524;45.190;5.732;2023-03-01T13:32:35;35.50;;;27.23;;
15669;SDS011;18524;45.190;5.732;2023-03-01T13:37:31;37.37;;;28.77;;
15669;SDS011;18524;45.190;5.732;2023-03-01T13:47:27;35.13;;;28.70;;
15669;SDS011;18524;45.190;5.732;2023-03-01T13:52:31;36.37;;;28.07;;
15669;SDS011;18524;45.190;5.732;2023-03-01T13:57:30;35.07;;;27.23;;
15669;SDS011;18524;45.190;5.732;2023-03-01T14:02:24;36.23;;;27.93;;
15669;SDS011;18524;45.190;5.732;2023-03-01T14:07:18;34.53;;;27.40;;
15669;SDS011;18524;45.190;5.732;2023-03-01T14:22:26;32.70;;;26.40;;
15669;SDS011;18524;45.190;5.732;2023-03-01T14:27:19;35.53;;;27.13;;
15669;SDS011;18524;45.190;5.732;2023-03-01T14:32:11;36.17;;;27.33;;
15669;SDS011;18524;45.190;5.732;2023-03-01T14:37:50;34.37;;;27.20;;
15669;SDS011;18524;45.190;5.732;2023-03-01T14:42:25;35.03;;;27.17;;
15669;SDS011;18524;45.190;5.732;2023-03-01T14:47:30;34.87;;;27.63;;
15669;SDS011;18524;45.190;5.732;2023-03-01T14:52:24;36.63;;;28.17;;
15669;SDS011;18524;45.190;5.732;2023-03-01T14:57:22;34.93;;;26.30;;
15669;SDS011;18524;45.190;5.732;2023-03-01T15:02:15;35.43;;;27.50;;
15669;SDS011;18524;45.190;5.732;2023-03-01T15:07:09;35.03;;;27.00;;
15669;SDS011;18524;45.190;5.732;2023-03-01T15:17:31;36.30;;;28.07;;
15669;SDS011;18524;45.190;5.732;2023-03-01T15:22:27;35.33;;;27.40;;
15669;SDS011;18524;45.190;5.732;2023-03-01T15:27:20;36.10;;;27.60;;
15669;SDS011;18524;45.190;5.732;2023-03-01T15:32:26;39.10;;;28.30;;
15669;SDS011;18524;45.190;5.732;2023-03-01T15:42:50;37.20;;;29.03;;
15669;SDS011;18524;45.190;5.732;2023-03-01T15:47:41;38.03;;;28.60;;
15669;SDS011;18524;45.190;5.732;2023-03-01T15:52:41;37.50;;;27.83;;
15669;SDS011;18524;45.190;5.732;2023-03-01T15:57:32;40.00;;;29.07;;
15669;SDS011;18524;45.190;5.732;2023-03-01T16:02:23;37.23;;;27.73;;
15669;SDS011;18524;45.190;5.732;2023-03-01T16:07:14;37.10;;;28.50;;
15669;SDS011;18524;45.190;5.732;2023-03-01T16:12:05;39.23;;;28.83;;
15669;SDS011;18524;45.190;5.732;2023-03-01T16:16:56;39.67;;;28.47;;
15669;SDS011;18524;45.190;5.732;2023-03-01T16:21:46;38.47;;;29.17;;
15669;SDS011;18524;45.190;5.732;2023-03-01T16:26:38;38.20;;;28.57;;
15669;SDS011;18524;45.190;5.732;2023-03-01T16:31:29;38.37;;;29.37;;
15669;SDS011;18524;45.190;5.732;2023-03-01T16:36:19;40.50;;;29.43;;
15669;SDS011;18524;45.190;5.732;2023-03-01T16:41:14;39.40;;;28.50;;
15669;SDS011;18524;45.190;5.732;2023-03-01T16:46:16;42.10;;;30.07;;
15669;SDS011;18524;45.190;5.732;2023-03-01T16:51:08;40.47;;;29.37;;
15669;SDS011;18524;45.190;5.732;2023-03-01T16:55:59;40.17;;;29.17;;
15669;SDS011;18524;45.190;5.732;2023-03-01T17:00:51;39.63;;;28.37;;
15669;SDS011;18524;45.190;5.732;2023-03-01T17:05:43;39.87;;;29.17;;
15669;SDS011;18524;45.190;5.732;2023-03-01T17:10:33;42.60;;;29.90;;
15669;SDS011;18524;45.190;5.732;2023-03-01T17:15:24;39.20;;;29.20;;
15669;SDS011;18524;45.190;5.732;2023-03-01T17:20:14;43.93;;;31.43;;
15669;SDS011;18524;45.190;5.732;2023-03-01T17:25:06;41.20;;;30.27;;
15669;SDS011;18524;45.190;5.732;2023-03-01T17:29:58;39.97;;;29.00;;
15669;SDS011;18524;45.190;5.732;2023-03-01T17:34:48;41.30;;;29.97;;
15669;SDS011;18524;45.190;5.732;2023-03-01T17:39:39;39.57;;;29.17;;
15669;SDS011;18524;45.190;5.732;2023-03-01T17:44:29;40.20;;;29.40;;
15669;SDS011;18524;45.190;5.732;2023-03-01T17:49:21;40.63;;;30.27;;
15669;SDS011;18524;45.190;5.732;2023-03-01T17:54:11;40.27;;;28.47;;
15669;SDS011;18524;45.190;5.732;2023-03-01T17:59:02;40.70;;;29.03;;
15669;SDS011;18524;45.190;5.732;2023-03-01T18:03:53;40.83;;;28.87;;
15669;SDS011;18524;45.190;5.732;2023-03-01T18:08:44;41.17;;;30.13;;
15669;SDS011;18524;45.190;5.732;2023-03-01T18:13:36;39.97;;;29.27;;
15669;SDS011;18524;45.190;5.732;2023-03-01T18:18:27;40.77;;;29.87;;
15669;SDS011;18524;45.190;5.732;2023-03-01T18:23:17;40.90;;;30.63;;
15669;SDS011;18524;45.190;5.732;2023-03-01T18:28:07;40.77;;;29.93;;
15669;SDS011;18524;45.190;5.732;2023-03-01T18:32:58;42.57;;;30.93;;
15669;SDS011;18524;45.190;5.732;2023-03-01T18:37:48;43.13;;;30.77;;
15669;SDS011;18524;45.190;5.732;2023-03-01T18:42:38;40.97;;;31.27;;
15669;SDS011;18524;45.190;5.732;2023-03-01T18:47:29;44.30;;;31.07;;
15669;SDS011;18524;45.190;5.732;2023-03-01T18:52:19;44.77;;;31.47;;
15669;SDS011;18524;45.190;5.732;2023-03-01T18:57:09;43.23;;;31.53;;
15669;SDS011;18524;45.190;5.732;2023-03-01T19:02:00;43.20;;;31.10;;
15669;SDS011;18524;45.190;5.732;2023-03-01T19:06:53;43.93;;;31.23;;
15669;SDS011;18524;45.190;5.732;2023-03-01T19:11:44;42.27;;;30.67;;
15669;SDS011;18524;45.190;5.732;2023-03-01T19:16:34;43.43;;;31.17;;
15669;SDS011;18524;45.190;5.732;2023-03-01T19:21:26;44.03;;;31.60;;
15669;SDS011;18524;45.190;5.732;2023-03-01T19:26:19;43.57;;;30.50;;
15669;SDS011;18524;45.190;5.732;2023-03-01T19:31:13;43.57;;;31.43;;
15669;SDS011;18524;45.190;5.732;2023-03-01T19:36:06;44.23;;;32.53;;
15669;SDS011;18524;45.190;5.732;2023-03-01T19:40:57;45.13;;;33.00;;
15669;SDS011;18524;45.190;5.732;2023-03-01T19:45:51;40.63;;;30.07;;
15669;SDS011;18524;45.190;5.732;2023-03-01T19:50:42;46.30;;;32.33;;
15669;SDS011;18524;45.190;5.732;2023-03-01T19:55:34;44.17;;;31.20;;
15669;SDS011;18524;45.190;5.732;2023-03-01T20:00:26;45.00;;;32.27;;
15669;SDS011;18524;45.190;5.732;2023-03-01T20:05:16;43.93;;;31.37;;
15669;SDS011;18524;45.190;5.732;2023-03-01T20:10:10;44.87;;;32.10;;
15669;SDS011;18524;45.190;5.732;2023-03-01T20:15:00;45.93;;;32.93;;
15669;SDS011;18524;45.190;5.732;2023-03-01T20:19:51;45.93;;;33.23;;
15669;SDS011;18524;45.190;5.732;2023-03-01T20:24:41;44.00;;;33.00;;
15669;SDS011;18524;45.190;5.732;2023-03-01T20:29:32;44.07;;;32.27;;
15669;SDS011;18524;45.190;5.732;2023-03-01T20:34:22;42.37;;;31.73;;
15669;SDS011;18524;45.190;5.732;2023-03-01T20:39:13;46.33;;;33.10;;
15669;SDS011;18524;45.190;5.732;2023-03-01T20:44:03;42.97;;;31.30;;
15669;SDS011;18524;45.190;5.732;2023-03-01T20:48:55;41.67;;;30.53;;
15669;SDS011;18524;45.190;5.732;2023-03-01T20:53:45;46.23;;;32.97;;
15669;SDS011;18524;45.190;5.732;2023-03-01T20:58:36;113.70;;;69.03;;
15669;SDS011;18524;45.190;5.732;2023-03-01T21:03:27;63.30;;;43.10;;
15669;SDS011;18524;45.190;5.732;2023-03-01T21:08:18;55.20;;;40.20;;
15669;SDS011;18524;45.190;5.732;2023-03-01T21:13:08;54.13;;;39.27;;
15669;SDS011;18524;45.190;5.732;2023-03-01T21:17:59;48.80;;;35.93;;
15669;SDS011;18524;45.190;5.732;2023-03-01T21:22:49;47.80;;;35.30;;
15669;SDS011;18524;45.190;5.732;2023-03-01T21:27:40;48.53;;;34.13;;
15669;SDS011;18524;45.190;5.732;2023-03-01T21:32:30;44.17;;;32.30;;
15669;SDS011;18524;45.190;5.732;2023-03-01T21:37:21;47.03;;;34.80;;
15669;SDS011;18524;45.190;5.732;2023-03-01T21:42:17;48.90;;;35.83;;
15669;SDS011;18524;45.190;5.732;2023-03-01T21:47:07;49.40;;;35.30;;
15669;SDS011;18524;45.190;5.732;2023-03-01T21:51:59;46.13;;;34.23;;
15669;SDS011;18524;45.190;5.732;2023-03-01T21:56:49;46.77;;;33.90;;
15669;SDS011;18524;45.190;5.732;2023-03-01T22:01:40;45.40;;;34.23;;
15669;SDS011;18524;45.190;5.732;2023-03-01T22:06:32;42.63;;;32.20;;
15669;SDS011;18524;45.190;5.732;2023-03-01T22:11:27;57.23;;;38.60;;
15669;SDS011;18524;45.190;5.732;2023-03-01T22:16:18;46.37;;;33.87;;
15669;SDS011;18524;45.190;5.732;2023-03-01T22:21:11;63.90;;;44.20;;
15669;SDS011;18524;45.190;5.732;2023-03-01T22:26:01;56.83;;;41.07;;
15669;SDS011;18524;45.190;5.732;2023-03-01T22:30:52;50.67;;;37.17;;
15669;SDS011;18524;45.190;5.732;2023-03-01T22:35:42;53.73;;;38.20;;
15669;SDS011;18524;45.190;5.732;2023-03-01T22:40:33;48.03;;;35.17;;
15669;SDS011;18524;45.190;5.732;2023-03-01T22:45:23;52.47;;;37.37;;
15669;SDS011;18524;45.190;5.732;2023-03-01T22:50:17;51.00;;;35.93;;
15669;SDS011;18524;45.190;5.732;2023-03-01T22:55:08;53.67;;;37.90;;
15669;SDS011;18524;45.190;5.732;2023-03-01T23:00:00;50.33;;;37.20;;
15669;SDS011;18524;45.190;5.732;2023-03-01T23:04:50;51.77;;;36.30;;
15669;SDS011;18524;45.190;5.732;2023-03-01T23:09:43;50.20;;;36.40;;
15669;SDS011;18524;45.190;5.732;2023-03-01T23:14:33;47.77;;;34.13;;
15669;SDS011;18524;45.190;5.732;2023-03-01T23:19:24;49.17;;;36.00;;
15669;SDS011;18524;45.190;5.732;2023-03-01T23:24:16;48.63;;;34.17;;
15669;SDS011;18524;45.190;5.732;2023-03-01T23:29:07;51.50;;;36.53;;
15669;SDS011;18524;45.190;5.732;2023-03-01T23:33:58;49.43;;;36.00;;
15669;SDS011;18524;45.190;5.732;2023-03-01T23:38:49;47.70;;;34.57;;
15669;SDS011;18524;45.190;5.732;2023-03-01T23:43:45;49.73;;;36.83;;
15669;SDS011;18524;45.190;5.732;2023-03-01T23:48:39;46.90;;;34.67;;
15669;SDS011;18524;45.190;5.732;2023-03-01T23:53:30;48.30;;;35.53;;
15669;SDS011;18524;45.190;5.732;2023-03-01T23:58:23;52.80;;;35.73;;
